Time;durP1;ratioP1;P1;durP2;ratioP2;P2;SDS_P1;SDS_P2;PMS_P1;PMS_P2;Temp;Humidity;BMP_temperature;BMP_pressure;BME280_temperature;BME280_humidity;BME280_pressure;Samples;Min_cycle;Max_cycle;Signal;HPM_P1;HPM_P2
2023/09/06 06:03:25;;;;;;;6.05;5.45;;;;;;;;;;6345348;22;20022;-90
2023/09/06 06:05:51;;;;;;;7.20;5.95;;;;;;;;;;6311951;22;20031;-87
2023/09/06 20:35:07;;;;;;;9.85;4.30;;;;;;;;;;6352981;22;20018;-82
2023/09/06 20:37:33;;;;;;;5.68;4.28;;;;;;;;;;6339080;22;20015;-87
2023/09/06 20:39:58;;;;;;;4.50;4.10;;;;;;;;;;6340434;22;20051;-85
2023/09/06 20:42:24;;;;;;;4.70;4.30;;;;;;;;;;6322604;22;20299;-88
2023/09/06 20:44:49;;;;;;;4.43;4.03;;;;;;;;;;6307422;22;20452;-88
2023/09/06 20:47:15;;;;;;;4.72;3.95;;;;;;;;;;6309165;22;20078;-87
2023/09/06 20:49:40;;;;;;;5.53;4.95;;;;;;;;;;6309259;22;20376;-87
2023/09/06 20:52:06;;;;;;;4.75;3.67;;;;;;;;;;6308539;22;20076;-87
2023/09/06 20:54:32;;;;;;;6.55;4.05;;;;;;;;;;6308674;22;20098;-87
2023/09/06 20:56:57;;;;;;;5.47;4.30;;;;;;;;;;6307318;22;20411;-87
2023/09/06 20:59:22;;;;;;;4.60;4.18;;;;;;;;;;6308688;22;20078;-88
2023/09/06 21:01:48;;;;;;;5.65;4.47;;;;;;;;;;6306964;22;20056;-88
2023/09/06 21:04:13;;;;;;;5.00;4.50;;;;;;;;;;6307084;22;20389;-88
2023/09/06 21:06:39;;;;;;;5.00;4.60;;;;;;;;;;6309348;22;20007;-87
2023/09/06 21:09:04;;;;;;;4.80;4.13;;;;;;;;;;6309149;22;20007;-88
2023/09/06 21:11:31;;;;;;;5.53;4.70;;;;;;;;;;6309166;22;20003;-88
2023/09/06 21:13:56;;;;;;;5.43;4.93;;;;;;;;;;6307077;22;20014;-87
2023/09/06 21:16:22;;;;;;;4.88;4.38;;;;;;;;;;6307000;22;20027;-87
2023/09/06 21:18:47;;;;;;;6.88;5.03;;;;;;;;;;6307630;22;20111;-86
2023/09/06 21:21:13;;;;;;;5.13;4.60;;;;;;;;;;6308725;22;20075;-86
2023/09/06 21:23:38;;;;;;;6.85;4.80;;;;;;;;;;6308589;22;20003;-87
2023/09/06 21:26:07;;;;;;;4.82;4.38;;;;;;;;;;6309239;22;20322;-87
2023/09/06 21:28:33;;;;;;;5.35;4.88;;;;;;;;;;6308538;22;20003;-89
2023/09/06 21:31:01;;;;;;;6.05;5.10;;;;;;;;;;6308692;22;20098;-90
2023/09/06 21:33:26;;;;;;;6.00;5.20;;;;;;;;;;6308803;22;20072;-90
2023/09/06 21:35:52;;;;;;;5.18;4.68;;;;;;;;;;6322884;22;20011;-91
2023/09/06 21:38:17;;;;;;;5.35;4.85;;;;;;;;;;6339984;22;20017;-89
2023/09/06 21:40:44;;;;;;;7.65;5.95;;;;;;;;;;6340475;22;20333;-89
2023/09/06 21:43:13;;;;;;;5.80;5.30;;;;;;;;;;6340685;22;20079;-90
2023/09/06 21:45:39;;;;;;;7.60;5.50;;;;;;;;;;6341856;22;20002;-90
2023/09/06 21:48:06;;;;;;;5.68;5.18;;;;;;;;;;6343347;22;20290;-89
2023/09/06 21:50:39;;;;;;;6.20;5.60;;;;;;;;;;6343557;22;20002;-89
2023/09/06 21:53:05;;;;;;;6.03;5.53;;;;;;;;;;6315572;22;20060;-89
2023/09/06 21:55:31;;;;;;;5.85;5.35;;;;;;;;;;6342304;22;19994;-89
2023/09/06 21:57:57;;;;;;;6.13;5.00;;;;;;;;;;6339980;22;20006;-89
2023/09/06 22:00:28;;;;;;;6.07;5.00;;;;;;;;;;6312171;22;20052;-90
2023/09/06 22:02:55;;;;;;;5.60;5.07;;;;;;;;;;6339697;22;19998;-90
2023/09/06 22:05:22;;;;;;;5.63;4.90;;;;;;;;;;6311828;22;20017;-91
2023/09/06 22:07:47;;;;;;;5.75;4.65;;;;;;;;;;6312063;22;20006;-89
2023/09/06 22:10:13;;;;;;;9.07;5.05;;;;;;;;;;6339650;22;20018;-89
2023/09/06 22:12:39;;;;;;;6.30;5.70;;;;;;;;;;6339376;22;20070;-89
2023/09/06 22:15:07;;;;;;;5.80;5.20;;;;;;;;;;6339550;22;19994;-88
2023/09/06 22:17:33;;;;;;;6.32;5.63;;;;;;;;;;6339708;22;20002;-89
